createdAt,value
2018-03-25T00:00:34.493Z,5.10
2018-03-25T00:03:02.397Z,4.90
2018-03-25T00:05:31.147Z,4.60
2018-03-25T00:07:58.971Z,4.50
2018-03-25T00:10:26.850Z,4.50
2018-03-25T00:12:54.516Z,3.60
2018-03-25T00:15:22.241Z,4.60
2018-03-25T00:17:49.889Z,4.70
2018-03-25T00:20:18.783Z,4.70
2018-03-25T00:22:47.339Z,4.70
2018-03-25T00:25:15.141Z,4.70
2018-03-25T00:27:44.166Z,4.70
2018-03-25T00:30:11.881Z,4.70
2018-03-25T00:32:41.533Z,4.50
2018-03-25T00:35:09.501Z,4.50
2018-03-25T00:37:37.181Z,4.40
2018-03-25T00:40:05.090Z,4.30
2018-03-25T00:42:33.979Z,4.20
2018-03-25T00:45:02.129Z,4.20
2018-03-25T00:47:29.861Z,4.20
2018-03-25T00:49:57.570Z,4.00
2018-03-25T00:52:25.390Z,4.00
2018-03-25T00:54:53.824Z,4.10
2018-03-25T00:57:22.720Z,4.20
2018-03-25T00:59:51.502Z,4.20
2018-03-25T01:02:19.366Z,4.20
2018-03-25T01:04:47.252Z,4.10
2018-03-25T01:07:16.336Z,4.20
2018-03-25T01:09:44.821Z,4.20
2018-03-25T01:12:12.724Z,4.20
2018-03-25T01:14:41.662Z,4.20
2018-03-25T01:17:09.507Z,4.10
2018-03-25T01:19:37.228Z,4.10
2018-03-25T01:22:05.226Z,4.10
2018-03-25T01:24:33.927Z,4.10
2018-03-25T01:27:01.618Z,4.10
2018-03-25T01:29:30.543Z,4.00
2018-03-25T01:31:58.260Z,4.00
2018-03-25T01:34:26.880Z,4.00
2018-03-25T01:36:54.698Z,4.00
2018-03-25T01:39:22.588Z,3.90
2018-03-25T01:41:50.373Z,3.90
2018-03-25T01:44:18.048Z,3.80
2018-03-25T01:46:45.766Z,3.80
2018-03-25T01:49:14.531Z,3.70
2018-03-25T01:51:42.253Z,3.70
2018-03-25T01:54:10.036Z,3.70
2018-03-25T01:56:37.749Z,3.70
2018-03-25T01:59:06.191Z,3.60
2018-03-25T02:01:34.064Z,3.60
2018-03-25T02:04:01.776Z,3.50
2018-03-25T02:06:36.373Z,3.40
2018-03-25T02:09:04.127Z,3.40
2018-03-25T02:11:31.854Z,3.40
2018-03-25T02:13:59.576Z,3.40
2018-03-25T02:16:28.272Z,3.40
2018-03-25T02:18:56.619Z,3.40
2018-03-25T02:21:24.376Z,3.30
2018-03-25T02:23:52.368Z,3.30
2018-03-25T02:26:28.985Z,3.30
2018-03-25T02:28:56.650Z,3.30
2018-03-25T02:31:26.223Z,3.30
2018-03-25T02:33:53.941Z,3.30
2018-03-25T02:36:22.337Z,3.30
2018-03-25T02:38:50.112Z,3.30
2018-03-25T02:41:17.800Z,3.30
2018-03-25T02:43:45.538Z,3.20
2018-03-25T02:46:13.999Z,3.20
2018-03-25T02:48:41.777Z,3.10
2018-03-25T02:51:10.323Z,3.20
2018-03-25T02:53:38.227Z,3.20
2018-03-25T02:56:08.748Z,3.20
2018-03-25T02:58:37.449Z,3.20
2018-03-25T03:01:05.145Z,3.10
2018-03-25T03:03:33.009Z,3.00
2018-03-25T03:06:01.044Z,2.80
2018-03-25T03:08:28.878Z,2.70
2018-03-25T03:10:57.250Z,2.80
2018-03-25T03:13:25.476Z,2.90
2018-03-25T03:15:56.218Z,2.90
2018-03-25T03:18:24.052Z,2.90
2018-03-25T03:20:51.740Z,2.90
2018-03-25T03:23:19.522Z,2.90
2018-03-25T03:25:47.382Z,2.80
2018-03-25T03:28:15.097Z,2.70
2018-03-25T03:30:42.966Z,2.80
2018-03-25T03:33:11.607Z,2.80
2018-03-25T03:35:40.216Z,2.90
2018-03-25T03:38:07.911Z,2.90
2018-03-25T03:40:36.395Z,2.60
2018-03-25T03:43:04.953Z,2.60
2018-03-25T03:45:32.792Z,2.60
2018-03-25T03:48:01.047Z,2.70
2018-03-25T03:50:28.861Z,2.70
2018-03-25T03:52:57.090Z,2.70
2018-03-25T03:55:24.858Z,2.60
2018-03-25T03:57:52.537Z,2.50
2018-03-25T04:00:20.333Z,2.60
2018-03-25T04:02:48.205Z,2.50
2018-03-25T04:05:16.021Z,2.40
2018-03-25T04:07:43.648Z,2.50
2018-03-25T04:10:11.395Z,2.50
2018-03-25T04:12:40.070Z,2.40
2018-03-25T04:15:07.744Z,2.40
2018-03-25T04:17:35.463Z,2.30
2018-03-25T04:20:03.212Z,2.30
2018-03-25T04:22:31.060Z,2.40
2018-03-25T04:24:59.701Z,2.50
2018-03-25T04:27:27.426Z,2.50
2018-03-25T04:29:55.353Z,2.50
2018-03-25T04:32:23.909Z,2.30
2018-03-25T04:34:51.855Z,2.30
2018-03-25T04:37:19.672Z,2.30
2018-03-25T04:39:49.194Z,2.10
2018-03-25T04:42:17.903Z,2.00
2018-03-25T04:44:45.636Z,1.90
2018-03-25T04:47:13.505Z,1.80
2018-03-25T04:49:41.666Z,1.70
2018-03-25T04:52:09.618Z,1.80
2018-03-25T04:54:38.074Z,1.70
2018-03-25T04:57:05.698Z,1.70
2018-03-25T04:59:33.479Z,1.80
2018-03-25T05:02:01.287Z,1.90
2018-03-25T05:04:29.199Z,2.00
2018-03-25T05:06:56.925Z,2.00
2018-03-25T05:09:24.761Z,2.10
2018-03-25T05:11:53.068Z,2.20
2018-03-25T05:14:21.718Z,2.10
2018-03-25T05:16:49.411Z,2.00
2018-03-25T05:19:17.132Z,2.10
2018-03-25T05:21:44.961Z,2.00
2018-03-25T05:24:12.653Z,2.00
2018-03-25T05:26:40.431Z,2.10
2018-03-25T05:29:09.174Z,2.00
2018-03-25T05:31:36.892Z,1.90
2018-03-25T05:34:04.625Z,1.70
2018-03-25T05:36:32.592Z,1.70
2018-03-25T05:39:00.371Z,1.80
2018-03-25T05:41:28.167Z,1.80
2018-03-25T05:43:55.837Z,1.80
2018-03-25T05:46:23.851Z,1.80
2018-03-25T05:48:51.861Z,1.80
2018-03-25T05:51:19.589Z,1.80
2018-03-25T05:53:47.419Z,1.80
2018-03-25T05:56:15.891Z,1.60
2018-03-25T05:58:43.562Z,1.60
2018-03-25T06:01:12.511Z,1.90
2018-03-25T06:03:40.374Z,1.80
2018-03-25T06:06:08.222Z,2.00
2018-03-25T06:08:36.032Z,2.00
2018-03-25T06:11:04.262Z,2.00
2018-03-25T06:13:32.108Z,2.10
2018-03-25T06:16:00.224Z,2.00
2018-03-25T06:18:27.870Z,2.00
2018-03-25T06:20:55.765Z,2.00
2018-03-25T06:23:24.436Z,1.90
2018-03-25T06:25:52.175Z,1.80
2018-03-25T06:28:20.160Z,1.90
2018-03-25T06:30:47.805Z,2.10
2018-03-25T06:33:15.858Z,2.30
2018-03-25T06:35:44.648Z,2.20
2018-03-25T06:38:13.604Z,2.20
2018-03-25T06:40:41.269Z,2.20
2018-03-25T06:43:09.074Z,2.10
2018-03-25T06:45:36.970Z,2.20
2018-03-25T06:48:04.647Z,2.10
2018-03-25T06:50:32.386Z,2.20
2018-03-25T06:53:00.042Z,2.20
2018-03-25T06:55:27.859Z,2.30
2018-03-25T06:57:55.563Z,2.40
2018-03-25T07:00:23.399Z,2.50
2018-03-25T07:02:51.350Z,2.70
2018-03-25T07:05:19.050Z,2.80
2018-03-25T07:07:46.798Z,2.80
2018-03-25T07:10:14.593Z,2.90
2018-03-25T07:12:42.355Z,2.70
2018-03-25T07:15:10.059Z,2.80
2018-03-25T07:17:37.811Z,2.90
2018-03-25T07:20:05.512Z,3.00
2018-03-25T07:22:33.389Z,3.00
2018-03-25T07:25:01.091Z,3.10
2018-03-25T07:27:28.941Z,3.30
2018-03-25T07:29:56.787Z,3.30
2018-03-25T07:32:25.222Z,3.40
2018-03-25T07:34:53.060Z,3.60
2018-03-25T07:37:21.096Z,3.70
2018-03-25T07:39:52.124Z,3.60
2018-03-25T07:42:20.936Z,3.80
2018-03-25T07:44:48.623Z,3.80
2018-03-25T07:47:17.253Z,4.10
2018-03-25T07:49:45.095Z,4.20
2018-03-25T07:52:12.964Z,4.40
2018-03-25T07:54:40.853Z,4.50
2018-03-25T07:57:09.303Z,4.60
2018-03-25T07:59:37.081Z,4.60
2018-03-25T08:02:05.005Z,4.50
2018-03-25T08:04:32.787Z,4.70
2018-03-25T08:07:00.678Z,4.90
2018-03-25T08:09:29.333Z,5.20
2018-03-25T08:11:57.626Z,5.20
2018-03-25T08:14:29.811Z,5.40
2018-03-25T08:16:58.525Z,5.50
2018-03-25T08:19:26.562Z,5.40
2018-03-25T08:21:55.311Z,5.70
2018-03-25T08:24:23.195Z,5.70
2018-03-25T08:26:51.092Z,5.90
2018-03-25T08:29:19.287Z,6.10
2018-03-25T08:31:47.119Z,6.10
2018-03-25T08:34:16.046Z,6.30
2018-03-25T08:36:44.730Z,6.40
2018-03-25T08:39:13.423Z,6.50
2018-03-25T08:41:41.318Z,6.50
2018-03-25T08:44:09.100Z,6.40
2018-03-25T08:46:36.963Z,6.50
2018-03-25T08:49:08.547Z,6.70
2018-03-25T08:51:36.483Z,6.80
2018-03-25T08:54:04.364Z,7.10
2018-03-25T08:56:32.359Z,7.20
2018-03-25T08:59:00.755Z,7.60
2018-03-25T09:01:31.055Z,7.60
2018-03-25T09:03:58.871Z,7.80
2018-03-25T09:06:26.796Z,7.90
2018-03-25T09:08:54.538Z,8.40
2018-03-25T09:11:24.096Z,8.90
2018-03-25T09:13:56.632Z,9.80
2018-03-25T09:16:26.235Z,10.50
2018-03-25T09:18:53.984Z,10.50
2018-03-25T09:21:22.805Z,13.00
2018-03-25T09:23:57.846Z,13.00
2018-03-25T09:26:26.589Z,14.00
2018-03-25T09:28:54.458Z,14.80
2018-03-25T09:31:24.161Z,16.10
2018-03-25T09:33:51.930Z,17.00
2018-03-25T09:36:20.598Z,18.00
2018-03-25T09:38:48.444Z,18.30
2018-03-25T09:41:16.437Z,18.10
2018-03-25T09:43:44.261Z,18.60
2018-03-25T09:46:12.796Z,18.80
2018-03-25T09:48:44.179Z,19.00
2018-03-25T09:51:11.812Z,19.00
2018-03-25T09:53:43.057Z,19.70
2018-03-25T09:56:10.918Z,20.20
2018-03-25T09:58:38.666Z,20.60
2018-03-25T10:01:11.945Z,20.00
2018-03-25T10:03:40.621Z,19.80
2018-03-25T10:06:08.422Z,20.10
2018-03-25T10:08:36.588Z,20.30
2018-03-25T10:11:05.216Z,20.50
2018-03-25T10:13:34.241Z,20.10
2018-03-25T10:16:02.097Z,20.10
2018-03-25T10:18:30.217Z,19.90
2018-03-25T10:21:03.277Z,19.90
2018-03-25T10:23:31.001Z,19.90
2018-03-25T10:25:59.491Z,20.30
2018-03-25T10:28:27.161Z,20.20
2018-03-25T10:31:00.651Z,20.90
2018-03-25T10:33:28.327Z,20.30
2018-03-25T10:35:56.988Z,20.10
2018-03-25T10:38:25.437Z,19.40
2018-03-25T10:40:53.312Z,19.40
2018-03-25T10:43:21.045Z,20.20
2018-03-25T10:45:48.747Z,20.70
2018-03-25T10:48:17.229Z,20.60
2018-03-25T10:50:45.785Z,20.50
2018-03-25T10:53:13.661Z,20.50
2018-03-25T10:55:45.739Z,20.10
2018-03-25T10:58:14.225Z,20.00
2018-03-25T11:00:46.280Z,19.70
2018-03-25T11:03:14.046Z,19.60
2018-03-25T11:05:41.720Z,19.80
2018-03-25T11:08:10.264Z,20.20
2018-03-25T11:10:38.031Z,20.20
2018-03-25T11:13:06.654Z,20.20
2018-03-25T11:15:35.163Z,19.60
2018-03-25T11:18:03.844Z,19.60
2018-03-25T11:20:31.892Z,20.00
2018-03-25T11:23:00.911Z,20.10
2018-03-25T11:25:35.461Z,19.90
2018-03-25T11:28:03.378Z,19.30
2018-03-25T11:30:33.186Z,18.90
2018-03-25T11:33:00.877Z,18.60
2018-03-25T11:35:28.644Z,18.40
2018-03-25T11:37:56.337Z,17.90
2018-03-25T11:40:24.241Z,17.50
2018-03-25T11:42:52.022Z,17.70
2018-03-25T11:45:20.517Z,17.60
2018-03-25T11:47:48.827Z,17.50
2018-03-25T11:50:16.789Z,17.20
2018-03-25T11:52:44.599Z,17.20
2018-03-25T11:55:18.823Z,16.70
2018-03-25T11:57:46.565Z,16.70
2018-03-25T12:00:14.536Z,16.80
2018-03-25T12:02:43.215Z,17.00
2018-03-25T12:05:11.048Z,17.00
2018-03-25T12:07:38.930Z,16.70
2018-03-25T12:10:06.720Z,16.40
2018-03-25T12:12:34.470Z,16.30
2018-03-25T12:15:02.153Z,16.30
2018-03-25T12:17:31.966Z,16.90
2018-03-25T12:20:03.600Z,16.80
2018-03-25T12:22:32.140Z,16.60
2018-03-25T12:24:59.855Z,16.50
2018-03-25T12:27:28.406Z,16.70
2018-03-25T12:29:56.171Z,17.50
2018-03-25T12:32:24.709Z,16.90
2018-03-25T12:34:52.622Z,16.90
2018-03-25T12:37:20.741Z,17.00
2018-03-25T12:39:49.465Z,17.50
2018-03-25T12:42:17.241Z,17.50
2018-03-25T12:44:45.670Z,17.70
2018-03-25T12:47:13.370Z,17.60
2018-03-25T12:49:44.208Z,17.50
2018-03-25T12:52:11.955Z,17.40
2018-03-25T12:54:40.669Z,17.40
2018-03-25T12:57:08.462Z,17.60
2018-03-25T12:59:37.203Z,17.50
2018-03-25T13:02:06.577Z,17.40
2018-03-25T13:04:34.648Z,17.50
2018-03-25T13:07:03.096Z,17.00
2018-03-25T13:09:31.021Z,17.00
2018-03-25T13:11:58.949Z,17.30
2018-03-25T13:14:30.225Z,17.30
2018-03-25T13:16:57.985Z,16.90
2018-03-25T13:19:29.020Z,16.80
2018-03-25T13:21:56.702Z,17.00
2018-03-25T13:24:24.573Z,17.40
2018-03-25T13:26:52.295Z,17.70
2018-03-25T13:29:20.038Z,18.10
2018-03-25T13:31:52.268Z,18.30
2018-03-25T13:34:19.976Z,18.30
2018-03-25T13:36:48.484Z,17.70
2018-03-25T13:39:16.152Z,17.70
2018-03-25T13:41:43.934Z,17.20
2018-03-25T13:44:11.717Z,17.10
2018-03-25T13:46:40.219Z,17.10
2018-03-25T13:49:07.934Z,17.10
2018-03-25T13:51:35.927Z,17.20
2018-03-25T13:54:03.723Z,16.80
2018-03-25T13:56:34.712Z,16.70
2018-03-25T13:59:02.393Z,16.60
2018-03-25T14:01:30.136Z,16.60
2018-03-25T14:03:58.570Z,16.10
2018-03-25T14:06:26.996Z,15.80
2018-03-25T14:08:54.698Z,15.80
2018-03-25T14:11:22.389Z,15.90
2018-03-25T14:13:50.213Z,15.80
2018-03-25T14:16:17.970Z,15.80
2018-03-25T14:18:45.863Z,15.60
2018-03-25T14:21:14.310Z,15.60
2018-03-25T14:23:43.198Z,15.60
2018-03-25T14:26:10.933Z,15.80
2018-03-25T14:28:39.959Z,15.80
2018-03-25T14:31:18.652Z,15.60
2018-03-25T14:33:47.532Z,15.50
2018-03-25T14:36:20.431Z,15.30
2018-03-25T14:38:48.917Z,15.20
2018-03-25T14:41:17.345Z,15.30
2018-03-25T14:43:46.018Z,15.40
2018-03-25T14:46:14.208Z,15.40
2018-03-25T14:48:42.410Z,15.30
2018-03-25T14:51:10.038Z,15.30
2018-03-25T14:53:39.601Z,15.60
2018-03-25T14:56:07.318Z,15.60
2018-03-25T14:58:35.902Z,15.90
2018-03-25T15:01:07.249Z,15.90
2018-03-25T15:03:35.972Z,15.30
2018-03-25T15:06:03.721Z,15.30
2018-03-25T15:08:31.524Z,15.30
2018-03-25T15:10:59.262Z,15.30
2018-03-25T15:13:27.210Z,15.20
2018-03-25T15:15:55.678Z,15.20
2018-03-25T15:18:24.126Z,15.20
2018-03-25T15:20:54.564Z,15.20
2018-03-25T15:23:23.111Z,15.20
2018-03-25T15:25:51.315Z,15.10
2018-03-25T15:28:18.996Z,15.10
2018-03-25T15:30:47.673Z,15.20
2018-03-25T15:33:15.380Z,15.20
2018-03-25T15:35:46.832Z,15.10
2018-03-25T15:38:15.562Z,15.10
2018-03-25T15:40:44.893Z,15.20
2018-03-25T15:43:12.607Z,15.00
2018-03-25T15:45:40.437Z,15.10
2018-03-25T15:48:08.183Z,15.10
2018-03-25T15:50:35.993Z,15.10
2018-03-25T15:53:03.813Z,15.10
2018-03-25T15:55:32.566Z,14.90
2018-03-25T15:58:00.338Z,14.80
2018-03-25T16:00:31.560Z,14.80
2018-03-25T16:03:00.256Z,14.80
2018-03-25T16:05:30.081Z,14.60
2018-03-25T16:07:57.941Z,14.50
2018-03-25T16:10:25.701Z,14.40
2018-03-25T16:12:53.678Z,14.40
2018-03-25T16:15:25.503Z,14.20
2018-03-25T16:17:54.199Z,14.10
2018-03-25T16:20:21.923Z,13.90
2018-03-25T16:22:49.640Z,13.90
2018-03-25T16:25:19.502Z,13.80
2018-03-25T16:27:49.093Z,13.80
2018-03-25T16:30:17.756Z,13.90
2018-03-25T16:32:46.259Z,14.00
2018-03-25T16:35:14.174Z,14.00
2018-03-25T16:37:42.007Z,13.90
2018-03-25T16:40:15.764Z,13.90
2018-03-25T16:42:43.916Z,13.90
2018-03-25T16:45:15.013Z,13.80
2018-03-25T16:47:42.755Z,13.60
2018-03-25T16:50:15.315Z,13.50
2018-03-25T16:52:43.111Z,13.50
2018-03-25T16:55:11.130Z,13.40
2018-03-25T16:57:41.995Z,13.40
2018-03-25T17:00:10.104Z,13.40
2018-03-25T17:02:37.911Z,13.30
2018-03-25T17:05:05.681Z,13.30
2018-03-25T17:07:34.620Z,13.40
2018-03-25T17:10:02.522Z,13.30
2018-03-25T17:12:30.275Z,13.20
2018-03-25T17:14:58.173Z,13.10
2018-03-25T17:17:26.113Z,13.10
2018-03-25T17:19:54.742Z,13.10
2018-03-25T17:22:25.815Z,13.00
2018-03-25T17:24:54.054Z,13.00
2018-03-25T17:27:22.662Z,12.90
2018-03-25T17:29:50.524Z,12.90
2018-03-25T17:32:22.246Z,12.80
2018-03-25T17:34:50.265Z,12.70
2018-03-25T17:37:19.264Z,12.70
2018-03-25T17:39:47.785Z,12.70
2018-03-25T17:42:15.570Z,12.60
2018-03-25T17:44:43.676Z,12.50
2018-03-25T17:47:11.668Z,12.60
2018-03-25T17:49:39.662Z,12.60
2018-03-25T17:52:07.680Z,12.60
2018-03-25T17:54:35.629Z,12.50
2018-03-25T17:57:07.557Z,12.50
2018-03-25T17:59:35.464Z,12.50
2018-03-25T18:02:07.751Z,12.40
2018-03-25T18:04:36.746Z,12.40
2018-03-25T18:07:04.710Z,12.40
2018-03-25T18:09:32.689Z,12.40
2018-03-25T18:12:01.140Z,12.30
2018-03-25T18:14:29.720Z,12.40
2018-03-25T18:16:58.395Z,11.00
2018-03-25T18:19:26.553Z,12.20
2018-03-25T18:21:54.512Z,12.20
2018-03-25T18:24:22.551Z,12.10
2018-03-25T18:26:55.219Z,12.00
2018-03-25T18:29:23.762Z,12.10
2018-03-25T18:31:52.388Z,12.00
2018-03-25T18:34:21.642Z,11.90
2018-03-25T18:36:55.471Z,11.90
2018-03-25T18:39:24.016Z,11.90
2018-03-25T18:41:51.981Z,11.90
2018-03-25T18:44:20.025Z,11.90
2018-03-25T18:46:48.805Z,11.90
2018-03-25T18:49:16.776Z,11.90
2018-03-25T18:51:44.750Z,11.90
2018-03-25T18:54:12.620Z,11.80
2018-03-25T18:56:43.846Z,11.80
2018-03-25T18:59:12.251Z,11.90
2018-03-25T19:01:44.910Z,11.90
2018-03-25T19:04:12.998Z,11.80
2018-03-25T19:06:40.767Z,11.80
2018-03-25T19:09:08.737Z,11.90
2018-03-25T19:11:40.199Z,11.80
2018-03-25T19:14:08.253Z,11.80
2018-03-25T19:16:36.408Z,11.90
2018-03-25T19:19:04.239Z,11.70
2018-03-25T19:21:32.794Z,11.60
2018-03-25T19:24:00.651Z,11.60
2018-03-25T19:26:28.437Z,11.70
2018-03-25T19:28:56.514Z,11.80
2018-03-25T19:31:24.408Z,11.70
2018-03-25T19:33:53.477Z,11.70
2018-03-25T19:36:27.685Z,11.70
2018-03-25T19:38:56.056Z,11.70
2018-03-25T19:41:31.044Z,11.60
2018-03-25T19:46:36.087Z,11.60
2018-03-25T19:49:04.878Z,11.60
2018-03-25T19:51:32.762Z,11.70
2018-03-25T19:54:01.002Z,11.70
2018-03-25T19:56:29.653Z,11.60
2018-03-25T19:58:57.823Z,11.60
2018-03-25T20:01:26.562Z,11.40
2018-03-25T20:03:55.087Z,11.50
2018-03-25T20:06:26.997Z,11.40
2018-03-25T20:08:55.649Z,11.40
2018-03-25T20:11:24.479Z,11.40
2018-03-25T20:13:52.159Z,11.30
2018-03-25T20:16:20.590Z,11.40
2018-03-25T20:18:48.654Z,11.30
2018-03-25T20:21:17.992Z,11.20
2018-03-25T20:23:45.804Z,11.30
2018-03-25T20:26:13.491Z,11.20
2018-03-25T20:28:41.258Z,11.10
2018-03-25T20:31:09.299Z,11.10
2018-03-25T20:33:42.999Z,11.10
2018-03-25T20:36:10.670Z,11.20
2018-03-25T20:38:38.511Z,11.20
2018-03-25T20:41:06.238Z,11.30
2018-03-25T20:43:34.725Z,11.20
2018-03-25T20:46:02.516Z,11.20
2018-03-25T20:48:30.290Z,11.30
2018-03-25T20:50:58.078Z,11.20
2018-03-25T20:53:25.924Z,11.10
2018-03-25T20:55:53.689Z,11.10
2018-03-25T20:58:26.110Z,11.10
2018-03-25T21:00:55.366Z,10.90
2018-03-25T21:03:23.122Z,10.80
2018-03-25T21:05:50.997Z,10.90
2018-03-25T21:08:22.059Z,11.00
2018-03-25T21:10:49.801Z,11.00
2018-03-25T21:13:18.074Z,11.00
2018-03-25T21:15:45.835Z,11.00
2018-03-25T21:18:13.537Z,10.80
2018-03-25T21:20:42.342Z,10.60
2018-03-25T21:23:10.196Z,10.60
2018-03-25T21:25:38.566Z,10.60
2018-03-25T21:28:07.084Z,10.70
2018-03-25T21:30:35.033Z,10.70
2018-03-25T21:33:07.368Z,10.70
2018-03-25T21:35:35.151Z,10.70
2018-03-25T21:38:02.872Z,10.80
2018-03-25T21:40:31.547Z,10.80
2018-03-25T21:42:59.166Z,10.80
2018-03-25T21:45:27.701Z,10.70
2018-03-25T21:47:56.246Z,10.70
2018-03-25T21:50:24.033Z,10.70
2018-03-25T21:52:51.728Z,10.60
2018-03-25T21:55:19.470Z,10.50
2018-03-25T21:57:50.841Z,10.50
2018-03-25T22:00:18.725Z,10.50
2018-03-25T22:02:46.534Z,10.30
2018-03-25T22:05:14.208Z,10.30
2018-03-25T22:07:41.943Z,10.40
2018-03-25T22:10:10.566Z,10.30
2018-03-25T22:12:38.335Z,10.30
2018-03-25T22:15:06.183Z,10.30
2018-03-25T22:17:34.683Z,10.20
2018-03-25T22:20:02.579Z,10.20
2018-03-25T22:22:34.749Z,10.20
2018-03-25T22:25:02.498Z,10.30
2018-03-25T22:27:30.997Z,10.20
2018-03-25T22:29:59.460Z,10.20
2018-03-25T22:32:31.092Z,10.20
2018-03-25T22:34:58.971Z,10.10
2018-03-25T22:37:26.669Z,10.10
2018-03-25T22:39:55.092Z,10.20
2018-03-25T22:42:22.743Z,10.20
2018-03-25T22:44:50.585Z,10.20
2018-03-25T22:47:18.215Z,10.20
2018-03-25T22:49:46.166Z,10.20
2018-03-25T22:52:13.923Z,10.10
2018-03-25T22:54:41.695Z,10.00
2018-03-25T22:57:12.600Z,10.00
2018-03-25T22:59:40.267Z,10.00
2018-03-25T23:02:08.837Z,10.00
2018-03-25T23:04:36.617Z,10.10
2018-03-25T23:07:04.306Z,10.00
2018-03-25T23:09:35.812Z,9.90
2018-03-25T23:12:04.234Z,9.80
2018-03-25T23:14:32.039Z,9.90
2018-03-25T23:17:00.683Z,9.70
2018-03-25T23:19:28.463Z,9.70
2018-03-25T23:21:56.520Z,9.70
2018-03-25T23:24:24.342Z,9.70
2018-03-25T23:26:52.046Z,9.70
2018-03-25T23:29:20.488Z,9.70
2018-03-25T23:31:48.709Z,9.60
2018-03-25T23:34:22.049Z,9.70
2018-03-25T23:36:49.733Z,9.60
2018-03-25T23:39:20.460Z,9.60
2018-03-25T23:41:48.264Z,9.70
2018-03-25T23:44:15.922Z,9.60
2018-03-25T23:46:44.692Z,9.70
2018-03-25T23:49:12.584Z,9.70
2018-03-25T23:51:41.213Z,9.80
2018-03-25T23:54:08.951Z,9.90
2018-03-25T23:56:37.483Z,9.90
2018-03-25T23:59:05.244Z,9.90
